sensor_id;sensor_type;location;lat;lon;timestamp;pressure;altitude;pressure_sealevel;temperature;humidity
50125;BME280;36023;48.670;6.184;2023-04-27T00:00:07;99080.19;;;17.64;38.42
50125;BME280;36023;48.670;6.184;2023-04-27T00:02:36;99080.19;;;17.64;38.33
50125;BME280;36023;48.670;6.184;2023-04-27T00:05:03;99076.72;;;17.64;38.51
50125;BME280;36023;48.670;6.184;2023-04-27T00:07:30;99074.13;;;17.64;38.48
50125;BME280;36023;48.670;6.184;2023-04-27T00:09:56;99087.22;;;17.64;38.62
50125;BME280;36023;48.670;6.184;2023-04-27T00:12:22;99082.81;;;17.64;38.40
50125;BME280;36023;48.670;6.184;2023-04-27T00:14:48;99082.91;;;17.63;38.35
50125;BME280;36023;48.670;6.184;2023-04-27T00:17:14;99088.97;;;17.63;38.47
50125;BME280;36023;48.670;6.184;2023-04-27T00:19:39;99086.38;;;17.63;38.51
50125;BME280;36023;48.670;6.184;2023-04-27T00:22:07;99085.53;;;17.63;38.49
50125;BME280;36023;48.670;6.184;2023-04-27T00:24:33;99087.22;;;17.64;38.43
50125;BME280;36023;48.670;6.184;2023-04-27T00:26:58;99083.75;;;17.63;38.49
50125;BME280;36023;48.670;6.184;2023-04-27T00:29:24;99091.59;;;17.63;38.45
50125;BME280;36023;48.670;6.184;2023-04-27T00:31:50;99086.38;;;17.63;38.55
50125;BME280;36023;48.670;6.184;2023-04-27T00:34:15;99086.38;;;17.63;38.50
50125;BME280;36023;48.670;6.184;2023-04-27T00:36:41;99075.13;;;17.61;38.43
50125;BME280;36023;48.670;6.184;2023-04-27T00:39:06;99078.50;;;17.63;38.44
50125;BME280;36023;48.670;6.184;2023-04-27T00:41:36;99075.97;;;17.62;38.45
50125;BME280;36023;48.670;6.184;2023-04-27T00:44:04;99067.28;;;17.61;38.59
50125;BME280;36023;48.670;6.184;2023-04-27T00:46:32;99062.03;;;17.61;38.60
50125;BME280;36023;48.670;6.184;2023-04-27T00:48:58;99064.66;;;17.61;38.51
50125;BME280;36023;48.670;6.184;2023-04-27T00:51:23;99065.56;;;17.60;38.42
50125;BME280;36023;48.670;6.184;2023-04-27T00:53:55;99063.81;;;17.61;38.52
50125;BME280;36023;48.670;6.184;2023-04-27T00:56:21;99063.81;;;17.61;38.46
50125;BME280;36023;48.670;6.184;2023-04-27T00:58:48;99062.97;;;17.60;38.49
50125;BME280;36023;48.670;6.184;2023-04-27T01:01:13;99062.97;;;17.60;38.55
50125;BME280;36023;48.670;6.184;2023-04-27T01:03:39;99060.34;;;17.60;38.56
50125;BME280;36023;48.670;6.184;2023-04-27T01:06:05;99063.00;;;17.59;38.61
50125;BME280;36023;48.670;6.184;2023-04-27T01:08:34;99068.25;;;17.59;38.47
50125;BME280;36023;48.670;6.184;2023-04-27T01:11:01;99065.56;;;17.60;38.59
50125;BME280;36023;48.670;6.184;2023-04-27T01:13:30;99069.13;;;17.59;38.64
50125;BME280;36023;48.670;6.184;2023-04-27T01:15:55;99068.25;;;17.59;38.51
50125;BME280;36023;48.670;6.184;2023-04-27T01:18:21;99065.63;;;17.59;38.38
50125;BME280;36023;48.670;6.184;2023-04-27T01:20:48;99067.41;;;17.58;38.54
50125;BME280;36023;48.670;6.184;2023-04-27T01:23:15;99058.69;;;17.58;38.63
50125;BME280;36023;48.670;6.184;2023-04-27T01:25:41;99053.47;;;17.58;38.37
50125;BME280;36023;48.670;6.184;2023-04-27T01:28:07;99047.38;;;17.57;38.64
50125;BME280;36023;48.670;6.184;2023-04-27T01:30:32;99050.84;;;17.58;38.46
50125;BME280;36023;48.670;6.184;2023-04-27T01:32:58;99050.00;;;17.57;38.47
50125;BME280;36023;48.670;6.184;2023-04-27T01:35:24;99051.75;;;17.57;38.37
50125;BME280;36023;48.670;6.184;2023-04-27T01:37:50;99055.22;;;17.57;38.52
50125;BME280;36023;48.670;6.184;2023-04-27T01:40:16;99063.16;;;17.55;38.64
50125;BME280;36023;48.670;6.184;2023-04-27T01:42:42;99052.69;;;17.55;38.55
50125;BME280;36023;48.670;6.184;2023-04-27T01:45:08;99057.00;;;17.57;38.48
50125;BME280;36023;48.670;6.184;2023-04-27T01:47:34;99052.69;;;17.55;38.25
50125;BME280;36023;48.670;6.184;2023-04-27T01:50:00;99058.78;;;17.56;38.53
50125;BME280;36023;48.670;6.184;2023-04-27T01:52:26;99053.53;;;17.56;38.24
50125;BME280;36023;48.670;6.184;2023-04-27T01:54:51;99047.47;;;17.55;38.38
50125;BME280;36023;48.670;6.184;2023-04-27T01:57:18;99051.84;;;17.55;38.28
50125;BME280;36023;48.670;6.184;2023-04-27T01:59:44;99050.06;;;17.55;38.31
50125;BME280;36023;48.670;6.184;2023-04-27T02:02:10;99051.84;;;17.55;38.40
50125;BME280;36023;48.670;6.184;2023-04-27T02:04:36;99044.00;;;17.55;38.40
50125;BME280;36023;48.670;6.184;2023-04-27T02:07:01;99036.13;;;17.55;38.33
50125;BME280;36023;48.670;6.184;2023-04-27T02:09:27;99034.44;;;17.54;38.25
50125;BME280;36023;48.670;6.184;2023-04-27T02:11:53;99051.84;;;17.55;38.38
50125;BME280;36023;48.670;6.184;2023-04-27T02:14:19;99043.16;;;17.54;38.14
50125;BME280;36023;48.670;6.184;2023-04-27T02:16:47;99054.47;;;17.55;38.32
50125;BME280;36023;48.670;6.184;2023-04-27T02:19:12;99040.53;;;17.54;38.35
50125;BME280;36023;48.670;6.184;2023-04-27T02:21:39;99047.47;;;17.55;38.39
50125;BME280;36023;48.670;6.184;2023-04-27T02:24:05;99041.38;;;17.55;38.29
50125;BME280;36023;48.670;6.184;2023-04-27T02:26:32;99049.22;;;17.55;38.55
50125;BME280;36023;48.670;6.184;2023-04-27T02:28:58;99048.31;;;17.56;38.41
50125;BME280;36023;48.670;6.184;2023-04-27T02:31:23;99050.16;;;17.54;38.35
50125;BME280;36023;48.670;6.184;2023-04-27T02:33:49;99048.38;;;17.54;38.26
50125;BME280;36023;48.670;6.184;2023-04-27T02:36:15;99047.47;;;17.55;38.39
50125;BME280;36023;48.670;6.184;2023-04-27T02:38:41;99052.78;;;17.54;38.29
50125;BME280;36023;48.670;6.184;2023-04-27T02:41:08;99054.47;;;17.55;38.47
50125;BME280;36023;48.670;6.184;2023-04-27T02:43:35;99051.94;;;17.53;38.50
50125;BME280;36023;48.670;6.184;2023-04-27T02:46:05;99055.38;;;17.54;38.45
50125;BME280;36023;48.670;6.184;2023-04-27T02:48:30;99045.84;;;17.53;38.74
50125;BME280;36023;48.670;6.184;2023-04-27T02:50:56;99052.78;;;17.54;38.30
50125;BME280;36023;48.670;6.184;2023-04-27T02:53:22;99051.09;;;17.53;38.38
50125;BME280;36023;48.670;6.184;2023-04-27T02:55:48;99046.69;;;17.53;38.30
50125;BME280;36023;48.670;6.184;2023-04-27T02:58:16;99048.47;;;17.53;38.42
50125;BME280;36023;48.670;6.184;2023-04-27T03:00:42;99047.53;;;17.54;38.36
50125;BME280;36023;48.670;6.184;2023-04-27T03:03:08;99048.47;;;17.53;38.39
50125;BME280;36023;48.670;6.184;2023-04-27T03:05:36;99050.16;;;17.54;38.39
50125;BME280;36023;48.670;6.184;2023-04-27T03:08:03;99050.22;;;17.52;38.56
50125;BME280;36023;48.670;6.184;2023-04-27T03:10:29;99050.22;;;17.52;38.48
50125;BME280;36023;48.670;6.184;2023-04-27T03:12:55;99052.00;;;17.52;38.58
50125;BME280;36023;48.670;6.184;2023-04-27T03:15:20;99052.00;;;17.52;38.58
50125;BME280;36023;48.670;6.184;2023-04-27T03:17:47;99050.22;;;17.52;38.52
50125;BME280;36023;48.670;6.184;2023-04-27T03:20:12;99052.00;;;17.52;38.57
50125;BME280;36023;48.670;6.184;2023-04-27T03:22:38;99049.38;;;17.52;38.70
50125;BME280;36023;48.670;6.184;2023-04-27T03:25:04;99042.38;;;17.52;38.52
50125;BME280;36023;48.670;6.184;2023-04-27T03:27:30;99046.78;;;17.52;38.58
50125;BME280;36023;48.670;6.184;2023-04-27T03:29:56;99044.16;;;17.52;38.66
50125;BME280;36023;48.670;6.184;2023-04-27T03:32:22;99042.38;;;17.52;38.71
50125;BME280;36023;48.670;6.184;2023-04-27T03:34:47;99045.00;;;17.52;38.71
50125;BME280;36023;48.670;6.184;2023-04-27T03:37:13;99045.94;;;17.51;38.58
50125;BME280;36023;48.670;6.184;2023-04-27T03:39:38;99046.78;;;17.52;38.61
50125;BME280;36023;48.670;6.184;2023-04-27T03:42:04;99038.91;;;17.52;38.90
50125;BME280;36023;48.670;6.184;2023-04-27T03:44:30;99031.06;;;17.52;38.83
50125;BME280;36023;48.670;6.184;2023-04-27T03:47:01;99044.16;;;17.52;38.71
50125;BME280;36023;48.670;6.184;2023-04-27T03:49:27;99039.84;;;17.51;38.82
50125;BME280;36023;48.670;6.184;2023-04-27T03:51:53;99045.94;;;17.51;38.84
50125;BME280;36023;48.670;6.184;2023-04-27T03:54:18;99042.38;;;17.52;38.90
50125;BME280;36023;48.670;6.184;2023-04-27T03:56:44;99046.78;;;17.52;38.78
50125;BME280;36023;48.670;6.184;2023-04-27T03:59:12;99041.53;;;17.52;39.04
50125;BME280;36023;48.670;6.184;2023-04-27T04:01:42;99051.16;;;17.51;39.01
50125;BME280;36023;48.670;6.184;2023-04-27T04:04:07;99050.31;;;17.51;38.91
50125;BME280;36023;48.670;6.184;2023-04-27T04:06:33;99051.16;;;17.51;38.89
50125;BME280;36023;48.670;6.184;2023-04-27T04:08:59;99059.03;;;17.51;38.97
50125;BME280;36023;48.670;6.184;2023-04-27T04:11:26;99050.31;;;17.51;38.79
50125;BME280;36023;48.670;6.184;2023-04-27T04:13:55;99054.69;;;17.50;38.95
50125;BME280;36023;48.670;6.184;2023-04-27T04:16:21;99060.78;;;17.51;38.91
50125;BME280;36023;48.670;6.184;2023-04-27T04:18:46;99060.78;;;17.51;39.04
50125;BME280;36023;48.670;6.184;2023-04-27T04:21:13;99060.78;;;17.51;39.11
50125;BME280;36023;48.670;6.184;2023-04-27T04:23:38;99067.72;;;17.52;39.14
50125;BME280;36023;48.670;6.184;2023-04-27T04:26:07;99061.69;;;17.50;39.03
50125;BME280;36023;48.670;6.184;2023-04-27T04:28:35;99068.66;;;17.51;39.13
50125;BME280;36023;48.670;6.184;2023-04-27T04:31:01;99062.53;;;17.50;39.31
50125;BME280;36023;48.670;6.184;2023-04-27T04:33:29;99067.72;;;17.52;39.24
50125;BME280;36023;48.670;6.184;2023-04-27T04:35:56;99080.81;;;17.52;39.18
50125;BME280;36023;48.670;6.184;2023-04-27T04:38:23;99083.34;;;17.53;39.73
50125;BME280;36023;48.670;6.184;2023-04-27T04:40:48;99084.88;;;17.58;40.14
50125;BME280;36023;48.670;6.184;2023-04-27T04:43:14;99086.53;;;17.60;40.01
50125;BME280;36023;48.670;6.184;2023-04-27T04:45:41;99088.97;;;17.63;40.14
50125;BME280;36023;48.670;6.184;2023-04-27T04:48:08;99089.63;;;17.68;40.33
50125;BME280;36023;48.670;6.184;2023-04-27T04:50:34;99091.19;;;17.72;40.51
50125;BME280;36023;48.670;6.184;2023-04-27T04:53:00;99094.44;;;17.77;40.66
50125;BME280;36023;48.670;6.184;2023-04-27T04:55:25;99091.59;;;17.82;40.50
50125;BME280;36023;48.670;6.184;2023-04-27T04:57:55;99087.88;;;17.86;40.42
50125;BME280;36023;48.670;6.184;2023-04-27T05:00:21;99090.28;;;17.91;40.54
50125;BME280;36023;48.670;6.184;2023-04-27T05:02:49;99092.75;;;17.94;40.47
50125;BME280;36023;48.670;6.184;2023-04-27T05:05:15;99095.16;;;17.98;40.50
50125;BME280;36023;48.670;6.184;2023-04-27T05:07:41;99099.38;;;18.01;40.62
50125;BME280;36023;48.670;6.184;2023-04-27T05:10:07;99095.66;;;18.05;40.54
50125;BME280;36023;48.670;6.184;2023-04-27T05:12:32;99104.31;;;18.07;40.52
50125;BME280;36023;48.670;6.184;2023-04-27T05:14:58;99091.97;;;18.09;40.65
50125;BME280;36023;48.670;6.184;2023-04-27T05:17:24;99102.31;;;18.12;40.49
50125;BME280;36023;48.670;6.184;2023-04-27T05:19:49;99098.75;;;18.13;40.53
50125;BME280;36023;48.670;6.184;2023-04-27T05:22:15;99105.63;;;18.16;40.42
50125;BME280;36023;48.670;6.184;2023-04-27T05:24:41;99107.25;;;18.18;40.46
50125;BME280;36023;48.670;6.184;2023-04-27T05:27:06;99101.06;;;18.19;40.64
50125;BME280;36023;48.670;6.184;2023-04-27T05:29:32;99101.88;;;18.21;40.45
50125;BME280;36023;48.670;6.184;2023-04-27T05:31:58;99110.50;;;18.23;40.65
50125;BME280;36023;48.670;6.184;2023-04-27T05:34:23;99113.88;;;18.25;40.49
50125;BME280;36023;48.670;6.184;2023-04-27T05:36:49;99117.34;;;18.26;40.50
50125;BME280;36023;48.670;6.184;2023-04-27T05:39:14;99105.84;;;18.28;40.53
50125;BME280;36023;48.670;6.184;2023-04-27T05:41:40;99104.94;;;18.29;40.55
50125;BME280;36023;48.670;6.184;2023-04-27T05:44:06;99105.69;;;18.31;40.56
50125;BME280;36023;48.670;6.184;2023-04-27T05:46:32;99103.09;;;18.31;40.45
50125;BME280;36023;48.670;6.184;2023-04-27T05:48:58;99103.00;;;18.33;40.32
50125;BME280;36023;48.670;6.184;2023-04-27T05:51:24;99111.69;;;18.33;40.19
50125;BME280;36023;48.670;6.184;2023-04-27T05:53:49;99117.72;;;18.35;40.41
50125;BME280;36023;48.670;6.184;2023-04-27T05:56:17;99116.81;;;18.36;40.48
50125;BME280;36023;48.670;6.184;2023-04-27T05:58:44;99117.56;;;18.38;40.53
50125;BME280;36023;48.670;6.184;2023-04-27T06:01:10;99114.94;;;18.38;40.43
50125;BME280;36023;48.670;6.184;2023-04-27T06:03:36;99116.66;;;18.40;40.42
50125;BME280;36023;48.670;6.184;2023-04-27T06:06:02;99128.81;;;18.41;40.50
50125;BME280;36023;48.670;6.184;2023-04-27T06:08:29;99133.97;;;18.42;40.48
50125;BME280;36023;48.670;6.184;2023-04-27T06:10:55;99134.75;;;18.44;40.24
50125;BME280;36023;48.670;6.184;2023-04-27T06:13:21;99134.69;;;18.46;40.47
50125;BME280;36023;48.670;6.184;2023-04-27T06:15:48;99134.69;;;18.46;40.37
50125;BME280;36023;48.670;6.184;2023-04-27T06:18:13;99144.25;;;18.47;40.36
50125;BME280;36023;48.670;6.184;2023-04-27T06:20:39;99146.78;;;18.48;40.33
50125;BME280;36023;48.670;6.184;2023-04-27T06:23:06;99147.63;;;18.49;40.48
50125;BME280;36023;48.670;6.184;2023-04-27T06:25:31;99155.50;;;18.49;40.31
50125;BME280;36023;48.670;6.184;2023-04-27T06:27:57;99151.03;;;18.51;40.41
50125;BME280;36023;48.670;6.184;2023-04-27T06:30:23;99151.88;;;18.51;40.40
50125;BME280;36023;48.670;6.184;2023-04-27T06:32:50;99150.09;;;18.52;40.42
50125;BME280;36023;48.670;6.184;2023-04-27T06:35:16;99146.63;;;18.51;40.28
50125;BME280;36023;48.670;6.184;2023-04-27T06:37:42;99145.78;;;18.51;40.21
50125;BME280;36023;48.670;6.184;2023-04-27T06:40:09;99140.53;;;18.51;40.08
50125;BME280;36023;48.670;6.184;2023-04-27T06:42:36;99149.31;;;18.50;40.34
50125;BME280;36023;48.670;6.184;2023-04-27T06:45:02;99144.16;;;18.48;40.24
50125;BME280;36023;48.670;6.184;2023-04-27T06:47:31;99154.56;;;18.50;40.34
50125;BME280;36023;48.670;6.184;2023-04-27T06:49:57;99152.03;;;18.48;40.20
50125;BME280;36023;48.670;6.184;2023-04-27T06:52:23;99161.84;;;18.45;40.40
50125;BME280;36023;48.670;6.184;2023-04-27T06:54:48;99158.44;;;18.43;40.30
50125;BME280;36023;48.670;6.184;2023-04-27T06:57:14;99159.34;;;18.42;40.35
50125;BME280;36023;48.670;6.184;2023-04-27T06:59:40;99159.53;;;18.38;40.53
50125;BME280;36023;48.670;6.184;2023-04-27T07:02:07;99163.00;;;18.39;40.47
50125;BME280;36023;48.670;6.184;2023-04-27T07:04:33;99150.03;;;18.36;40.68
50125;BME280;36023;48.670;6.184;2023-04-27T07:06:59;99155.34;;;18.34;40.62
50125;BME280;36023;48.670;6.184;2023-04-27T07:09:24;99157.88;;;18.36;40.83
50125;BME280;36023;48.670;6.184;2023-04-27T07:11:51;99153.53;;;18.36;41.47
50125;BME280;36023;48.670;6.184;2023-04-27T07:14:16;99143.63;;;18.42;42.17
50125;BME280;36023;48.670;6.184;2023-04-27T07:16:42;99137.22;;;18.47;43.34
50125;BME280;36023;48.670;6.184;2023-04-27T07:19:09;99142.22;;;18.52;43.59
50125;BME280;36023;48.670;6.184;2023-04-27T07:21:34;99133.38;;;18.54;44.58
50125;BME280;36023;48.670;6.184;2023-04-27T07:24:00;99133.28;;;18.56;45.18
50125;BME280;36023;48.670;6.184;2023-04-27T07:26:29;99136.06;;;18.53;45.07
50125;BME280;36023;48.670;6.184;2023-04-27T07:28:57;99135.28;;;18.51;44.51
50125;BME280;36023;48.670;6.184;2023-04-27T07:31:22;99130.97;;;18.50;44.92
50125;BME280;36023;48.670;6.184;2023-04-27T07:33:48;99130.97;;;18.50;45.56
50125;BME280;36023;48.670;6.184;2023-04-27T07:36:13;99129.28;;;18.49;45.93
50125;BME280;36023;48.670;6.184;2023-04-27T07:38:39;99127.66;;;18.46;45.51
50125;BME280;36023;48.670;6.184;2023-04-27T07:41:06;99125.28;;;18.42;44.80
50125;BME280;36023;48.670;6.184;2023-04-27T07:43:33;99121.72;;;18.43;45.48
50125;BME280;36023;48.670;6.184;2023-04-27T07:46:01;99117.41;;;18.42;45.54
50125;BME280;36023;48.670;6.184;2023-04-27T07:48:27;99117.41;;;18.42;45.68
50125;BME280;36023;48.670;6.184;2023-04-27T07:50:53;99126.97;;;18.43;45.57
50125;BME280;36023;48.670;6.184;2023-04-27T07:53:19;99125.28;;;18.42;45.76
50125;BME280;36023;48.670;6.184;2023-04-27T07:55:46;99123.56;;;18.41;45.85
50125;BME280;36023;48.670;6.184;2023-04-27T07:58:12;99117.66;;;18.37;45.75
50125;BME280;36023;48.670;6.184;2023-04-27T08:00:39;99114.19;;;18.36;45.42
50125;BME280;36023;48.670;6.184;2023-04-27T08:03:04;99108.06;;;18.36;45.42
50125;BME280;36023;48.670;6.184;2023-04-27T08:05:32;99114.31;;;18.33;45.26
50125;BME280;36023;48.670;6.184;2023-04-27T08:07:57;99112.63;;;18.32;45.29
50125;BME280;36023;48.670;6.184;2023-04-27T08:10:24;99117.88;;;18.32;45.29
50125;BME280;36023;48.670;6.184;2023-04-27T08:12:50;99117.88;;;18.32;45.30
50125;BME280;36023;48.670;6.184;2023-04-27T08:15:16;99121.44;;;18.31;45.44
50125;BME280;36023;48.670;6.184;2023-04-27T08:17:41;99118.81;;;18.31;45.44
50125;BME280;36023;48.670;6.184;2023-04-27T08:20:09;99111.97;;;18.29;45.28
50125;BME280;36023;48.670;6.184;2023-04-27T08:22:37;99117.19;;;18.29;45.34
50125;BME280;36023;48.670;6.184;2023-04-27T08:25:04;99110.25;;;18.28;45.51
50125;BME280;36023;48.670;6.184;2023-04-27T08:27:30;99113.78;;;18.27;45.18
50125;BME280;36023;48.670;6.184;2023-04-27T08:29:57;99117.41;;;18.24;45.28
50125;BME280;36023;48.670;6.184;2023-04-27T08:32:23;99116.56;;;18.24;45.35
50125;BME280;36023;48.670;6.184;2023-04-27T08:34:48;99113.09;;;18.23;45.46
50125;BME280;36023;48.670;6.184;2023-04-27T08:37:14;99113.09;;;18.23;45.27
50125;BME280;36023;48.670;6.184;2023-04-27T08:39:41;99125.47;;;18.21;45.19
50125;BME280;36023;48.670;6.184;2023-04-27T08:42:10;99108.00;;;18.20;45.32
50125;BME280;36023;48.670;6.184;2023-04-27T08:44:39;99109.88;;;18.18;45.17
50125;BME280;36023;48.670;6.184;2023-04-27T08:47:06;99115.09;;;18.18;45.10
50125;BME280;36023;48.670;6.184;2023-04-27T08:49:32;99106.41;;;18.18;44.74
50125;BME280;36023;48.670;6.184;2023-04-27T08:51:57;99104.63;;;18.18;44.60
50125;BME280;36023;48.670;6.184;2023-04-27T08:54:23;99100.31;;;18.17;44.46
50125;BME280;36023;48.670;6.184;2023-04-27T08:56:48;99095.22;;;18.14;44.67
50125;BME280;36023;48.670;6.184;2023-04-27T08:59:15;99109.22;;;18.13;44.35
50125;BME280;36023;48.670;6.184;2023-04-27T09:01:46;99104.88;;;18.14;44.49
50125;BME280;36023;48.670;6.184;2023-04-27T09:04:15;99099.69;;;18.12;44.10
50125;BME280;36023;48.670;6.184;2023-04-27T09:06:43;99098.91;;;18.10;44.23
50125;BME280;36023;48.670;6.184;2023-04-27T09:09:08;99093.69;;;18.10;44.27
50125;BME280;36023;48.670;6.184;2023-04-27T09:11:37;99099.94;;;18.07;44.08
50125;BME280;36023;48.670;6.184;2023-04-27T09:14:23;99104.25;;;18.08;43.99
50125;BME280;36023;48.670;6.184;2023-04-27T09:16:56;99103.47;;;18.06;43.90
50125;BME280;36023;48.670;6.184;2023-04-27T09:19:27;99100.84;;;18.06;44.12
50125;BME280;36023;48.670;6.184;2023-04-27T09:22:07;99099.22;;;18.04;44.08
50125;BME280;36023;48.670;6.184;2023-04-27T09:24:33;99104.41;;;18.05;43.95
50125;BME280;36023;48.670;6.184;2023-04-27T09:26:59;99108.78;;;18.05;44.04
50125;BME280;36023;48.670;6.184;2023-04-27T09:29:46;99104.41;;;18.05;44.16
50125;BME280;36023;48.670;6.184;2023-04-27T09:32:16;99103.63;;;18.03;44.01
50125;BME280;36023;48.670;6.184;2023-04-27T09:34:42;99105.38;;;18.03;43.87
50125;BME280;36023;48.670;6.184;2023-04-27T09:37:08;99113.34;;;18.01;44.11
50125;BME280;36023;48.670;6.184;2023-04-27T09:39:35;99101.06;;;18.02;43.84
50125;BME280;36023;48.670;6.184;2023-04-27T09:42:03;99107.16;;;18.02;43.87
50125;BME280;36023;48.670;6.184;2023-04-27T09:44:31;99112.47;;;18.01;43.88
50125;BME280;36023;48.670;6.184;2023-04-27T09:47:00;99105.47;;;18.01;43.82
50125;BME280;36023;48.670;6.184;2023-04-27T09:49:26;99101.16;;;18.00;43.77
50125;BME280;36023;48.670;6.184;2023-04-27T09:51:56;99096.75;;;18.01;43.84
50125;BME280;36023;48.670;6.184;2023-04-27T09:54:26;99091.53;;;18.01;43.88
50125;BME280;36023;48.670;6.184;2023-04-27T09:57:03;99093.28;;;18.00;43.88
50125;BME280;36023;48.670;6.184;2023-04-27T09:59:47;99095.91;;;18.00;43.98
50125;BME280;36023;48.670;6.184;2023-04-27T10:02:17;99094.91;;;18.03;44.02
50125;BME280;36023;48.670;6.184;2023-04-27T10:07:15;99095.84;;;18.02;44.03
50125;BME280;36023;48.670;6.184;2023-04-27T10:09:43;99098.47;;;18.02;44.04
50125;BME280;36023;48.670;6.184;2023-04-27T10:17:14;99078.41;;;18.01;43.98
50125;BME280;36023;48.670;6.184;2023-04-27T10:19:52;99079.25;;;18.01;44.23
50125;BME280;36023;48.670;6.184;2023-04-27T10:22:19;99087.13;;;18.01;44.22
50125;BME280;36023;48.670;6.184;2023-04-27T10:24:50;99081.81;;;18.03;44.34
50125;BME280;36023;48.670;6.184;2023-04-27T10:27:18;99080.88;;;18.04;44.35
50125;BME280;36023;48.670;6.184;2023-04-27T10:29:46;99077.28;;;18.06;44.73
50125;BME280;36023;48.670;6.184;2023-04-27T10:32:21;99081.50;;;18.09;44.91
50125;BME280;36023;48.670;6.184;2023-04-27T10:34:49;99078.78;;;18.10;44.94
50125;BME280;36023;48.670;6.184;2023-04-27T10:37:16;99073.47;;;18.12;45.07
50125;BME280;36023;48.670;6.184;2023-04-27T10:39:44;99071.63;;;18.14;45.23
50125;BME280;36023;48.670;6.184;2023-04-27T10:42:10;99069.88;;;18.15;45.43
50125;BME280;36023;48.670;6.184;2023-04-27T10:44:36;99063.59;;;18.17;45.33
50125;BME280;36023;48.670;6.184;2023-04-27T10:47:16;99066.22;;;18.17;45.50
50125;BME280;36023;48.670;6.184;2023-04-27T10:49:44;99062.69;;;18.18;45.64
50125;BME280;36023;48.670;6.184;2023-04-27T10:52:10;99057.44;;;18.18;45.62
50125;BME280;36023;48.670;6.184;2023-04-27T10:54:36;99062.69;;;18.18;45.64
50125;BME280;36023;48.670;6.184;2023-04-27T10:59:31;99053.03;;;18.19;45.78
50125;BME280;36023;48.670;6.184;2023-04-27T11:01:56;99056.50;;;18.19;45.85
50125;BME280;36023;48.670;6.184;2023-04-27T11:04:22;99057.34;;;18.20;45.70
50125;BME280;36023;48.670;6.184;2023-04-27T11:06:48;99057.34;;;18.20;45.74
50125;BME280;36023;48.670;6.184;2023-04-27T11:09:25;99054.72;;;18.20;46.03
50125;BME280;36023;48.670;6.184;2023-04-27T11:11:51;99054.69;;;18.21;46.05
50125;BME280;36023;48.670;6.184;2023-04-27T11:14:19;99045.09;;;18.20;46.05
50125;BME280;36023;48.670;6.184;2023-04-27T11:16:48;99058.16;;;18.22;46.05
50125;BME280;36023;48.670;6.184;2023-04-27T11:19:14;99050.28;;;18.22;46.28
50125;BME280;36023;48.670;6.184;2023-04-27T11:21:40;99045.88;;;18.22;46.25
50125;BME280;36023;48.670;6.184;2023-04-27T11:24:06;99050.19;;;18.23;46.25
50125;BME280;36023;48.670;6.184;2023-04-27T11:26:32;99038.03;;;18.22;46.44
50125;BME280;36023;48.670;6.184;2023-04-27T11:29:07;99036.25;;;18.23;46.56
50125;BME280;36023;48.670;6.184;2023-04-27T11:31:42;99031.84;;;18.23;46.41
50125;BME280;36023;48.670;6.184;2023-04-27T11:34:18;99024.91;;;18.22;46.46
50125;BME280;36023;48.670;6.184;2023-04-27T11:37:04;99037.09;;;18.23;46.65
50125;BME280;36023;48.670;6.184;2023-04-27T11:39:34;99023.13;;;18.23;46.63
50125;BME280;36023;48.670;6.184;2023-04-27T11:44:41;99012.66;;;18.23;46.68
50125;BME280;36023;48.670;6.184;2023-04-27T11:47:07;99005.63;;;18.23;46.79
50125;BME280;36023;48.670;6.184;2023-04-27T11:49:33;99000.38;;;18.23;46.63
50125;BME280;36023;48.670;6.184;2023-04-27T11:51:59;98996.91;;;18.23;46.75
50125;BME280;36023;48.670;6.184;2023-04-27T11:54:28;98999.47;;;18.24;46.71
50125;BME280;36023;48.670;6.184;2023-04-27T11:57:03;98991.59;;;18.24;46.82
50125;BME280;36023;48.670;6.184;2023-04-27T11:59:31;98999.47;;;18.24;46.78
50125;BME280;36023;48.670;6.184;2023-04-27T12:01:57;98988.97;;;18.24;46.98
50125;BME280;36023;48.670;6.184;2023-04-27T12:04:28;98985.50;;;18.24;46.99
50125;BME280;36023;48.670;6.184;2023-04-27T12:06:54;98988.03;;;18.25;46.95
50125;BME280;36023;48.670;6.184;2023-04-27T12:09:20;98989.81;;;18.25;47.36
50125;BME280;36023;48.670;6.184;2023-04-27T12:11:46;98997.69;;;18.25;47.04
50125;BME280;36023;48.670;6.184;2023-04-27T12:14:12;98989.81;;;18.25;47.15
50125;BME280;36023;48.670;6.184;2023-04-27T12:16:38;99000.31;;;18.25;47.15
50125;BME280;36023;48.670;6.184;2023-04-27T12:19:03;99002.91;;;18.25;47.36
50125;BME280;36023;48.670;6.184;2023-04-27T12:21:29;99006.38;;;18.25;47.13
50125;BME280;36023;48.670;6.184;2023-04-27T12:23:57;99005.47;;;18.26;47.34
50125;BME280;36023;48.670;6.184;2023-04-27T12:26:24;99002.84;;;18.26;47.27
50125;BME280;36023;48.670;6.184;2023-04-27T12:28:49;98994.13;;;18.26;47.33
50125;BME280;36023;48.670;6.184;2023-04-27T12:31:15;98991.50;;;18.26;47.36
50125;BME280;36023;48.670;6.184;2023-04-27T12:33:43;98985.41;;;18.25;47.57
50125;BME280;36023;48.670;6.184;2023-04-27T12:36:08;98987.09;;;18.26;47.52
50125;BME280;36023;48.670;6.184;2023-04-27T12:38:34;98995.81;;;18.27;47.42
50125;BME280;36023;48.670;6.184;2023-04-27T12:41:00;98992.25;;;18.28;47.45
50125;BME280;36023;48.670;6.184;2023-04-27T12:43:28;98991.38;;;18.29;47.46
50125;BME280;36023;48.670;6.184;2023-04-27T12:45:53;98994.81;;;18.29;47.57
50125;BME280;36023;48.670;6.184;2023-04-27T12:48:20;98994.75;;;18.31;47.75
50125;BME280;36023;48.670;6.184;2023-04-27T12:50:47;98988.66;;;18.30;47.62
50125;BME280;36023;48.670;6.184;2023-04-27T12:53:13;98994.75;;;18.31;47.64
50125;BME280;36023;48.670;6.184;2023-04-27T12:55:38;98991.19;;;18.32;47.59
50125;BME280;36023;48.670;6.184;2023-04-27T12:58:05;98990.34;;;18.31;47.76
50125;BME280;36023;48.670;6.184;2023-04-27T13:00:30;98991.19;;;18.32;47.72
50125;BME280;36023;48.670;6.184;2023-04-27T13:02:56;98992.88;;;18.33;47.66
50125;BME280;36023;48.670;6.184;2023-04-27T13:05:22;98993.72;;;18.33;47.78
50125;BME280;36023;48.670;6.184;2023-04-27T13:07:48;98997.19;;;18.34;47.66
50125;BME280;36023;48.670;6.184;2023-04-27T13:10:15;98995.41;;;18.34;47.58